Time;durP1;ratioP1;P1;durP2;ratioP2;P2;SDS_P1;SDS_P2;PMS_P1;PMS_P2;Temp;Humidity;BMP_temperature;BMP_pressure;BME280_temperature;BME280_humidity;BME280_pressure;Samples;Min_cycle;Max_cycle;Signal;HPM_P1;HPM_P2
2022/10/28 00:01:52;;;;;;;22.83;8.70;;;;;;;;;;5029894;28;20044;-61
2022/10/28 00:04:17;;;;;;;21.38;9.88;;;;;;;;;;5031562;28;20075;-61
2022/10/28 00:06:42;;;;;;;15.63;8.70;;;;;;;;;;5030112;28;20434;-62
2022/10/28 00:09:07;;;;;;;21.40;7.22;;;;;;;;;;5031526;28;20025;-62
2022/10/28 00:11:33;;;;;;;20.30;8.53;;;;;;;;;;5029819;28;20116;-62
2022/10/28 00:14:00;;;;;;;22.50;10.45;;;;;;;;;;5031811;28;20039;-62
2022/10/28 00:16:29;;;;;;;16.02;9.82;;;;;;;;;;5029496;28;20388;-62
2022/10/28 00:18:55;;;;;;;17.92;10.02;;;;;;;;;;5031327;28;20025;-62
2022/10/28 00:21:24;;;;;;;18.33;8.70;;;;;;;;;;5029892;28;20017;-62
2022/10/28 00:23:50;;;;;;;19.02;9.07;;;;;;;;;;5031288;28;20009;-62
2022/10/28 00:26:25;;;;;;;21.27;10.38;;;;;;;;;;5027315;28;20519;-62
2022/10/28 00:28:55;;;;;;;15.82;9.85;;;;;;;;;;5011749;28;20026;-62
2022/10/28 00:31:21;;;;;;;16.73;12.18;;;;;;;;;;5009808;28;20040;-62
2022/10/28 00:33:47;;;;;;;18.20;9.70;;;;;;;;;;5011433;28;20105;-62
2022/10/28 00:36:22;;;;;;;23.23;10.07;;;;;;;;;;5019612;28;20112;-62
2022/10/28 00:38:49;;;;;;;21.15;10.70;;;;;;;;;;5030985;28;20084;-62
2022/10/28 00:41:18;;;;;;;14.82;10.90;;;;;;;;;;5029328;28;20507;-62
2022/10/28 00:43:45;;;;;;;14.60;9.77;;;;;;;;;;5031276;28;20159;-63
2022/10/28 00:46:15;;;;;;;18.90;9.38;;;;;;;;;;5030458;28;20087;-64
2022/10/28 00:48:41;;;;;;;15.65;10.35;;;;;;;;;;5028678;28;20041;-64
2022/10/28 00:51:08;;;;;;;22.42;10.13;;;;;;;;;;5030902;28;20497;-64
2022/10/28 00:53:33;;;;;;;19.63;12.07;;;;;;;;;;5029096;28;20032;-64
2022/10/28 00:56:00;;;;;;;15.85;10.85;;;;;;;;;;5031279;28;20021;-64
2022/10/28 00:58:25;;;;;;;24.80;13.48;;;;;;;;;;5029407;28;20125;-63
2022/10/28 01:00:50;;;;;;;13.15;9.98;;;;;;;;;;5030219;28;20068;-64
2022/10/28 01:03:16;;;;;;;15.13;12.23;;;;;;;;;;5029435;28;20040;-63
2022/10/28 01:05:42;;;;;;;21.30;12.85;;;;;;;;;;5030902;28;20025;-64
2022/10/28 01:08:08;;;;;;;25.45;13.02;;;;;;;;;;5028971;28;20042;-64
2022/10/28 01:10:41;;;;;;;24.35;14.20;;;;;;;;;;5030460;28;20396;-64
2022/10/28 01:13:14;;;;;;;21.55;13.30;;;;;;;;;;5029521;28;20249;-63
2022/10/28 01:15:54;;;;;;;14.98;11.20;;;;;;;;;;5029785;28;20028;-62
2022/10/28 01:18:26;;;;;;;18.45;12.60;;;;;;;;;;5029111;28;20196;-63
2022/10/28 01:21:10;;;;;;;20.27;12.27;;;;;;;;;;5030838;28;20024;-63
2022/10/28 01:23:44;;;;;;;32.33;13.98;;;;;;;;;;5028740;28;20065;-62
2022/10/28 01:26:28;;;;;;;15.68;12.02;;;;;;;;;;5030459;28;20029;-62
2022/10/28 01:29:02;;;;;;;27.88;13.27;;;;;;;;;;5029126;28;20041;-63
2022/10/28 01:31:30;;;;;;;21.83;14.27;;;;;;;;;;5009189;28;20034;-64
2022/10/28 01:34:07;;;;;;;23.77;14.07;;;;;;;;;;5011191;28;20050;-63
2022/10/28 01:36:49;;;;;;;16.10;13.25;;;;;;;;;;5012289;28;20519;-63
2022/10/28 01:39:28;;;;;;;23.83;11.73;;;;;;;;;;5030715;28;20021;-63
2022/10/28 01:41:58;;;;;;;23.40;13.93;;;;;;;;;;5029594;28;20053;-63
2022/10/28 01:44:49;;;;;;;18.63;12.02;;;;;;;;;;5030063;28;20014;-62
2022/10/28 01:47:18;;;;;;;24.65;13.00;;;;;;;;;;5020482;28;20061;-63
2022/10/28 01:49:50;;;;;;;23.88;13.23;;;;;;;;;;5030502;28;20468;-63
2022/10/28 01:52:17;;;;;;;26.90;13.20;;;;;;;;;;5028409;28;20103;-63
2022/10/28 01:54:44;;;;;;;29.30;15.57;;;;;;;;;;5030407;28;20044;-63
2022/10/28 01:57:11;;;;;;;14.65;11.48;;;;;;;;;;5028556;28;20091;-63
2022/10/28 01:59:37;;;;;;;17.08;13.18;;;;;;;;;;5030968;28;20025;-63
2022/10/28 02:02:02;;;;;;;18.52;12.57;;;;;;;;;;5032699;28;20041;-63
2022/10/28 02:04:27;;;;;;;15.67;12.23;;;;;;;;;;5033799;28;20026;-61
2022/10/28 02:06:54;;;;;;;22.40;11.57;;;;;;;;;;5032218;28;20042;-61
2022/10/28 02:09:22;;;;;;;19.40;12.60;;;;;;;;;;5034141;28;20498;-62
2022/10/28 02:12:12;;;;;;;22.92;13.15;;;;;;;;;;5031584;28;20045;-63
2022/10/28 02:14:43;;;;;;;15.65;10.75;;;;;;;;;;5033414;28;20021;-63
2022/10/28 02:17:20;;;;;;;20.85;10.80;;;;;;;;;;5032319;28;20045;-63
2022/10/28 02:19:48;;;;;;;20.20;10.65;;;;;;;;;;5033675;28;20414;-62
2022/10/28 02:22:36;;;;;;;27.15;11.85;;;;;;;;;;5031920;28;20390;-61
2022/10/28 02:25:06;;;;;;;18.60;11.40;;;;;;;;;;5033469;28;20051;-61
2022/10/28 02:27:58;;;;;;;18.25;9.55;;;;;;;;;;5031478;28;20045;-61
2022/10/28 02:30:38;;;;;;;20.20;11.40;;;;;;;;;;5031338;28;20041;-61
2022/10/28 02:33:05;;;;;;;24.15;13.23;;;;;;;;;;5032211;28;20049;-61
2022/10/28 02:35:33;;;;;;;30.77;12.35;;;;;;;;;;5032982;28;20052;-61
2022/10/28 02:38:00;;;;;;;19.77;11.57;;;;;;;;;;5031669;28;20041;-61
2022/10/28 02:40:26;;;;;;;30.35;12.52;;;;;;;;;;5032847;28;20024;-61
2022/10/28 02:42:54;;;;;;;24.67;10.98;;;;;;;;;;5031938;28;20033;-61
2022/10/28 02:45:31;;;;;;;18.80;10.77;;;;;;;;;;5032922;28;20365;-61
2022/10/28 02:47:58;;;;;;;23.90;11.05;;;;;;;;;;5031525;28;20202;-61
2022/10/28 02:50:30;;;;;;;16.10;10.52;;;;;;;;;;5033465;28;20013;-61
2022/10/28 02:52:57;;;;;;;21.40;11.75;;;;;;;;;;5031537;28;20057;-62
2022/10/28 02:55:24;;;;;;;15.73;8.52;;;;;;;;;;5032807;28;20104;-62
2022/10/28 02:57:49;;;;;;;18.70;9.25;;;;;;;;;;5031352;28;20029;-62
2022/10/28 03:00:18;;;;;;;14.50;8.35;;;;;;;;;;5032817;28;20036;-62
2022/10/28 03:02:43;;;;;;;;;;;;;;;;;;5032130;28;20036;-62
2022/10/28 03:05:08;;;;;;;12.00;8.20;;;;;;;;;;5032963;28;20016;-62
2022/10/28 03:07:33;;;;;;;20.92;9.80;;;;;;;;;;5030859;28;20037;-62
2022/10/28 03:09:58;;;;;;;19.50;10.50;;;;;;;;;;5029075;28;20476;-62
2022/10/28 03:12:24;;;;;;;18.13;10.07;;;;;;;;;;5030678;28;20452;-62
2022/10/28 03:14:49;;;;;;;17.10;10.50;;;;;;;;;;5032220;28;20400;-62
2022/10/28 03:17:14;;;;;;;18.67;10.97;;;;;;;;;;5031345;28;20041;-62
2022/10/28 03:19:39;;;;;;;19.80;7.80;;;;;;;;;;5032488;28;20057;-63
2022/10/28 03:22:04;;;;;;;17.13;8.77;;;;;;;;;;5031084;28;20096;-63
2022/10/28 03:24:29;;;;;;;11.13;7.90;;;;;;;;;;5032403;28;20469;-62
2022/10/28 03:26:54;;;;;;;19.58;9.63;;;;;;;;;;5031047;28;20091;-63
2022/10/28 03:29:20;;;;;;;17.70;10.43;;;;;;;;;;5032118;28;20025;-62
2022/10/28 03:31:45;;;;;;;21.60;8.82;;;;;;;;;;5030932;28;20034;-62
2022/10/28 03:34:10;;;;;;;19.08;9.70;;;;;;;;;;5032237;28;20025;-62
2022/10/28 03:36:35;;;;;;;12.55;7.22;;;;;;;;;;5030036;28;20069;-62
2022/10/28 03:39:00;;;;;;;21.08;10.45;;;;;;;;;;5032053;28;20026;-62
2022/10/28 03:41:26;;;;;;;17.30;9.07;;;;;;;;;;5030875;28;20033;-62
2022/10/28 03:43:51;;;;;;;12.85;7.95;;;;;;;;;;5031904;28;20015;-62
2022/10/28 03:46:16;;;;;;;19.15;10.48;;;;;;;;;;5030602;28;20471;-62
2022/10/28 03:48:41;;;;;;;29.33;9.53;;;;;;;;;;5032131;28;20041;-61
2022/10/28 03:51:06;;;;;;;13.17;8.30;;;;;;;;;;5031847;28;20469;-62
2022/10/28 03:53:31;;;;;;;15.93;8.15;;;;;;;;;;5029860;28;20040;-62
2022/10/28 03:55:58;;;;;;;18.20;9.50;;;;;;;;;;5031915;28;20021;-62
2022/10/28 03:58:24;;;;;;;12.05;9.30;;;;;;;;;;5030375;28;20109;-62
2022/10/28 04:00:49;;;;;;;16.98;7.53;;;;;;;;;;5031680;28;20152;-62
2022/10/28 04:03:15;;;;;;;17.45;8.35;;;;;;;;;;5030651;28;20038;-63
2022/10/28 04:05:41;;;;;;;17.83;8.57;;;;;;;;;;5030961;28;20440;-62
2022/10/28 04:08:06;;;;;;;17.67;7.30;;;;;;;;;;5029918;28;20449;-63
2022/10/28 04:10:31;;;;;;;13.98;7.80;;;;;;;;;;5031773;28;20037;-63
2022/10/28 04:13:00;;;;;;;39.97;8.17;;;;;;;;;;5029781;28;20083;-62
2022/10/28 04:15:25;;;;;;;24.52;9.27;;;;;;;;;;5031810;28;20032;-62
2022/10/28 04:17:50;;;;;;;17.00;8.47;;;;;;;;;;5030258;28;20029;-62
2022/10/28 04:20:15;;;;;;;17.27;7.88;;;;;;;;;;5030547;28;20100;-62
2022/10/28 04:22:40;;;;;;;20.53;8.40;;;;;;;;;;5028625;28;20413;-62
2022/10/28 04:25:06;;;;;;;22.00;8.63;;;;;;;;;;5031488;28;20025;-61
2022/10/28 04:27:31;;;;;;;11.23;7.72;;;;;;;;;;5029466;28;20040;-61
2022/10/28 04:29:56;;;;;;;17.48;8.30;;;;;;;;;;5031292;28;20424;-61
2022/10/28 04:32:21;;;;;;;26.88;9.18;;;;;;;;;;5029493;28;20065;-61
2022/10/28 04:34:46;;;;;;;24.67;9.70;;;;;;;;;;5030999;28;20028;-61
2022/10/28 04:37:11;;;;;;;14.37;6.80;;;;;;;;;;5029563;28;20443;-62
2022/10/28 04:39:36;;;;;;;19.98;7.88;;;;;;;;;;5031043;28;20025;-61
2022/10/28 04:42:02;;;;;;;14.77;8.07;;;;;;;;;;5029579;28;20148;-61
2022/10/28 04:44:27;;;;;;;14.88;8.00;;;;;;;;;;5031094;28;20115;-61
2022/10/28 04:46:54;;;;;;;20.20;9.47;;;;;;;;;;5029242;28;20041;-61
2022/10/28 04:49:19;;;;;;;17.73;8.55;;;;;;;;;;5030813;28;20408;-61
2022/10/28 04:51:44;;;;;;;22.27;7.55;;;;;;;;;;5029251;28;20045;-61
2022/10/28 04:54:09;;;;;;;20.17;8.52;;;;;;;;;;5031276;28;20021;-62
2022/10/28 04:56:34;;;;;;;19.33;8.73;;;;;;;;;;5029453;28;20042;-62
2022/10/28 04:58:59;;;;;;;18.08;9.05;;;;;;;;;;5030945;28;20029;-62
2022/10/28 05:01:25;;;;;;;17.57;8.30;;;;;;;;;;5029317;28;20014;-62
2022/10/28 05:03:50;;;;;;;22.87;8.60;;;;;;;;;;5030357;28;20020;-59
2022/10/28 05:06:15;;;;;;;17.30;9.13;;;;;;;;;;5024548;28;20013;-59
2022/10/28 05:08:40;;;;;;;20.80;9.27;;;;;;;;;;5011101;28;20085;-61
2022/10/28 05:11:05;;;;;;;16.20;9.15;;;;;;;;;;5021056;28;20025;-61
2022/10/28 05:13:31;;;;;;;19.67;8.18;;;;;;;;;;5028688;28;20061;-60
2022/10/28 05:15:56;;;;;;;22.33;7.63;;;;;;;;;;5030748;28;20048;-61
2022/10/28 05:18:21;;;;;;;20.17;9.02;;;;;;;;;;5028938;28;20034;-60
2022/10/28 05:20:51;;;;;;;16.45;8.52;;;;;;;;;;5029816;28;20037;-61
2022/10/28 05:23:16;;;;;;;26.27;6.97;;;;;;;;;;5029127;28;20033;-61
2022/10/28 05:25:41;;;;;;;15.98;6.88;;;;;;;;;;5030254;28;20067;-61
2022/10/28 05:28:06;;;;;;;23.57;9.63;;;;;;;;;;5029171;28;20047;-61
2022/10/28 05:30:32;;;;;;;13.68;8.27;;;;;;;;;;5029227;28;20041;-61
2022/10/28 05:32:57;;;;;;;14.32;7.70;;;;;;;;;;5028187;28;20037;-61
2022/10/28 05:35:22;;;;;;;15.45;8.73;;;;;;;;;;5032567;28;20072;-61
2022/10/28 05:37:48;;;;;;;14.13;6.40;;;;;;;;;;5029364;28;20116;-59
2022/10/28 05:40:13;;;;;;;17.47;9.87;;;;;;;;;;5023345;28;20021;-59
2022/10/28 05:42:42;;;;;;;18.60;9.73;;;;;;;;;;5021968;28;20129;-59
2022/10/28 05:45:07;;;;;;;13.95;8.55;;;;;;;;;;5025491;28;20021;-59
2022/10/28 05:47:33;;;;;;;24.95;7.82;;;;;;;;;;5030402;28;20037;-59
2022/10/28 05:49:58;;;;;;;14.60;7.30;;;;;;;;;;5034368;28;20030;-58
2022/10/28 05:52:23;;;;;;;16.50;8.60;;;;;;;;;;5032594;28;20183;-59
2022/10/28 05:54:48;;;;;;;12.00;7.25;;;;;;;;;;5034180;28;20021;-59
2022/10/28 05:57:13;;;;;;;18.80;7.22;;;;;;;;;;5032802;28;20045;-59
2022/10/28 05:59:38;;;;;;;14.67;8.63;;;;;;;;;;5034192;28;20658;-58
2022/10/28 06:02:03;;;;;;;31.73;10.43;;;;;;;;;;5032795;28;20041;-59
2022/10/28 06:04:29;;;;;;;16.15;8.82;;;;;;;;;;5033461;28;20024;-58
2022/10/28 06:06:55;;;;;;;25.15;10.05;;;;;;;;;;5032951;28;20029;-59
2022/10/28 06:09:20;;;;;;;22.65;8.13;;;;;;;;;;5034364;28;20358;-58
2022/10/28 06:11:45;;;;;;;22.10;7.93;;;;;;;;;;5031928;28;20524;-59
2022/10/28 06:14:10;;;;;;;21.20;8.10;;;;;;;;;;5034151;28;20036;-58
2022/10/28 06:16:36;;;;;;;41.37;10.73;;;;;;;;;;5032321;28;20501;-59
2022/10/28 06:19:01;;;;;;;20.35;8.98;;;;;;;;;;5033850;28;20017;-59
2022/10/28 06:21:26;;;;;;;21.17;7.75;;;;;;;;;;5032137;28;20025;-59
2022/10/28 06:23:51;;;;;;;15.02;7.20;;;;;;;;;;5033991;28;20056;-59
2022/10/28 06:26:16;;;;;;;15.63;8.55;;;;;;;;;;5032476;28;20385;-58
2022/10/28 06:28:41;;;;;;;14.40;8.10;;;;;;;;;;5033497;28;20101;-58
2022/10/28 06:31:08;;;;;;;18.77;8.80;;;;;;;;;;5033388;28;20032;-59
2022/10/28 06:33:33;;;;;;;18.27;9.48;;;;;;;;;;5031099;28;20036;-59
2022/10/28 06:35:59;;;;;;;22.50;8.18;;;;;;;;;;5033673;28;20041;-59
2022/10/28 06:38:25;;;;;;;23.55;9.05;;;;;;;;;;5032213;28;20428;-59
2022/10/28 06:40:50;;;;;;;15.82;8.40;;;;;;;;;;5033012;28;20350;-59
2022/10/28 06:43:15;;;;;;;15.93;7.30;;;;;;;;;;5031403;28;20026;-57
2022/10/28 06:45:40;;;;;;;15.07;8.18;;;;;;;;;;5032133;28;20025;-57
2022/10/28 06:48:05;;;;;;;22.70;8.63;;;;;;;;;;5031665;28;20026;-57
2022/10/28 06:50:32;;;;;;;19.00;8.37;;;;;;;;;;5033070;28;20499;-58
2022/10/28 06:52:57;;;;;;;15.80;8.90;;;;;;;;;;5030444;28;20037;-59
2022/10/28 06:55:23;;;;;;;17.25;8.85;;;;;;;;;;5041266;28;20014;-59
2022/10/28 06:57:48;;;;;;;21.95;8.15;;;;;;;;;;5051243;28;20454;-59
2022/10/28 07:00:13;;;;;;;12.48;6.90;;;;;;;;;;5042840;28;20381;-59
2022/10/28 07:02:39;;;;;;;18.48;8.52;;;;;;;;;;5031136;28;20068;-59
2022/10/28 07:05:04;;;;;;;24.13;8.68;;;;;;;;;;5033020;28;20059;-58
2022/10/28 07:07:29;;;;;;;17.20;8.05;;;;;;;;;;5031154;28;20396;-59
2022/10/28 07:09:54;;;;;;;21.55;7.68;;;;;;;;;;5032700;28;20021;-59
2022/10/28 07:12:19;;;;;;;16.63;8.03;;;;;;;;;;5031492;28;20037;-59
2022/10/28 07:14:45;;;;;;;18.83;7.43;;;;;;;;;;5032935;28;20029;-59
2022/10/28 07:17:10;;;;;;;14.30;9.13;;;;;;;;;;5031223;28;20397;-59
2022/10/28 07:19:35;;;;;;;36.85;13.85;;;;;;;;;;5030853;28;20031;-59
2022/10/28 07:22:00;;;;;;;22.13;8.87;;;;;;;;;;5031339;28;20033;-59
2022/10/28 07:24:25;;;;;;;17.10;8.75;;;;;;;;;;5032496;28;20966;-59
2022/10/28 07:26:50;;;;;;;19.57;8.43;;;;;;;;;;5031036;28;20481;-59
2022/10/28 07:29:16;;;;;;;13.00;7.27;;;;;;;;;;5032414;28;20944;-59
2022/10/28 07:31:41;;;;;;;39.90;8.02;;;;;;;;;;5030387;28;20061;-59
2022/10/28 07:34:06;;;;;;;20.27;7.50;;;;;;;;;;5032155;28;20032;-59
2022/10/28 07:36:31;;;;;;;18.35;7.85;;;;;;;;;;5030720;28;20054;-59
2022/10/28 07:38:56;;;;;;;14.93;7.33;;;;;;;;;;5032465;28;20022;-59
2022/10/28 07:41:22;;;;;;;14.23;8.40;;;;;;;;;;5030464;28;20144;-59
2022/10/28 07:43:47;;;;;;;13.82;9.05;;;;;;;;;;5032067;28;20025;-59
2022/10/28 07:46:12;;;;;;;21.65;8.52;;;;;;;;;;5032608;28;20022;-59
2022/10/28 07:48:38;;;;;;;29.35;8.85;;;;;;;;;;5030268;28;20044;-59
2022/10/28 07:51:04;;;;;;;16.67;7.23;;;;;;;;;;5032197;28;20033;-59
2022/10/28 07:53:29;;;;;;;21.77;9.15;;;;;;;;;;5030420;28;20493;-59
2022/10/28 07:55:58;;;;;;;21.05;7.85;;;;;;;;;;5031923;28;20021;-59
2022/10/28 07:58:24;;;;;;;15.90;8.55;;;;;;;;;;5030191;28;20049;-59
2022/10/28 08:00:49;;;;;;;14.27;7.03;;;;;;;;;;5031684;28;20018;-59
2022/10/28 08:03:14;;;;;;;17.30;8.38;;;;;;;;;;5030264;28;20515;-59
2022/10/28 08:05:39;;;;;;;20.40;8.37;;;;;;;;;;5031753;28;20067;-59
2022/10/28 08:08:04;;;;;;;19.67;6.32;;;;;;;;;;5030332;28;20038;-59
2022/10/28 08:10:29;;;;;;;20.53;8.50;;;;;;;;;;5031389;28;20381;-59
2022/10/28 08:12:56;;;;;;;20.17;8.02;;;;;;;;;;5030266;28;20041;-59
2022/10/28 08:15:22;;;;;;;28.33;10.10;;;;;;;;;;5031786;28;20017;-59
2022/10/28 08:17:51;;;;;;;24.40;8.27;;;;;;;;;;5029891;28;20551;-59
2022/10/28 08:20:16;;;;;;;32.10;9.70;;;;;;;;;;5031820;28;20017;-59
2022/10/28 08:22:42;;;;;;;18.08;7.95;;;;;;;;;;5029880;28;20064;-59
2022/10/28 08:25:07;;;;;;;14.85;7.47;;;;;;;;;;5031424;28;20033;-58
2022/10/28 08:27:32;;;;;;;11.90;6.78;;;;;;;;;;5029791;28;20041;-59
2022/10/28 08:29:57;;;;;;;23.70;10.53;;;;;;;;;;5031239;28;20504;-60
2022/10/28 08:32:22;;;;;;;19.05;7.95;;;;;;;;;;5029545;28;20463;-59
2022/10/28 08:34:48;;;;;;;15.77;8.07;;;;;;;;;;5029113;28;20380;-59
2022/10/28 08:37:14;;;;;;;20.05;8.50;;;;;;;;;;5042529;28;20819;-59
2022/10/28 08:39:40;;;;;;;18.35;7.47;;;;;;;;;;5050928;28;20048;-59
2022/10/28 08:42:21;;;;;;;15.40;6.30;;;;;;;;;;5035684;28;20390;-58
2022/10/28 08:44:55;;;;;;;20.50;10.10;;;;;;;;;;5030915;28;20036;-59
2022/10/28 08:47:38;;;;;;;16.92;7.85;;;;;;;;;;5029596;28;20033;-58
2022/10/28 08:50:09;;;;;;;18.05;7.65;;;;;;;;;;5031325;28;20056;-59
2022/10/28 08:52:40;;;;;;;12.45;6.97;;;;;;;;;;5029210;28;20037;-58
2022/10/28 08:55:05;;;;;;;24.98;9.85;;;;;;;;;;5030631;28;20036;-59
2022/10/28 08:57:37;;;;;;;17.75;9.68;;;;;;;;;;5029300;28;20033;-63
2022/10/28 09:00:12;;;;;;;16.38;7.90;;;;;;;;;;5031200;28;20104;-59
2022/10/28 09:02:56;;;;;;;33.22;10.75;;;;;;;;;;5029059;28;20531;-59
2022/10/28 09:05:22;;;;;;;21.80;8.05;;;;;;;;;;5030625;28;20025;-59
2022/10/28 09:07:48;;;;;;;19.13;8.18;;;;;;;;;;5028938;28;20037;-59
2022/10/28 09:10:14;;;;;;;13.93;7.68;;;;;;;;;;5029976;28;20029;-59
2022/10/28 09:12:45;;;;;;;24.17;7.45;;;;;;;;;;5029151;28;20124;-59
2022/10/28 09:15:19;;;;;;;24.60;7.72;;;;;;;;;;5031115;28;20033;-59
2022/10/28 09:17:44;;;;;;;20.05;8.07;;;;;;;;;;5029046;28;20040;-59
2022/10/28 09:20:31;;;;;;;16.15;7.65;;;;;;;;;;5030858;28;20104;-59
2022/10/28 09:23:17;;;;;;;29.90;9.55;;;;;;;;;;5029584;28;20454;-59
2022/10/28 09:25:42;;;;;;;23.88;8.52;;;;;;;;;;5019766;28;20059;-59
2022/10/28 09:28:22;;;;;;;25.73;7.55;;;;;;;;;;5029402;28;20033;-59
2022/10/28 09:30:50;;;;;;;19.23;6.82;;;;;;;;;;5030250;28;20477;-59
2022/10/28 09:33:29;;;;;;;23.00;8.02;;;;;;;;;;5029367;28;20025;-59
2022/10/28 09:35:55;;;;;;;22.88;6.97;;;;;;;;;;5030789;28;20052;-60
2022/10/28 09:38:26;;;;;;;21.02;6.75;;;;;;;;;;5028948;28;20033;-59
2022/10/28 09:40:55;;;;;;;19.75;7.32;;;;;;;;;;5030852;28;20026;-59
2022/10/28 09:43:20;;;;;;;;;;;;;;;;;;5029974;28;20560;-59
2022/10/28 09:45:47;;;;;;;24.75;6.50;;;;;;;;;;5030528;28;20509;-59
2022/10/28 09:48:12;;;;;;;15.20;6.15;;;;;;;;;;5029205;28;20030;-59
2022/10/28 09:50:37;;;;;;;19.25;5.25;;;;;;;;;;5030434;28;20028;-59
2022/10/28 09:53:08;;;;;;;22.50;5.10;;;;;;;;;;5028797;28;20041;-59
2022/10/28 09:55:33;;;;;;;15.63;6.40;;;;;;;;;;5030621;28;20389;-59
2022/10/28 09:57:59;;;;;;;20.00;7.57;;;;;;;;;;5029152;28;20041;-59
2022/10/28 10:00:24;;;;;;;15.97;5.53;;;;;;;;;;5030318;28;20022;-59
2022/10/28 10:02:51;;;;;;;14.63;5.90;;;;;;;;;;5028872;28;20045;-59
2022/10/28 10:05:17;;;;;;;18.77;6.28;;;;;;;;;;5027078;28;20464;-59
2022/10/28 10:07:48;;;;;;;29.48;7.38;;;;;;;;;;5027886;28;20037;-59
2022/10/28 10:10:15;;;;;;;17.75;7.20;;;;;;;;;;5030430;28;20025;-59
2022/10/28 10:12:41;;;;;;;13.23;4.97;;;;;;;;;;5028435;28;20041;-59
2022/10/28 10:15:10;;;;;;;15.82;5.05;;;;;;;;;;5028487;28;20027;-59
2022/10/28 10:17:40;;;;;;;21.60;6.78;;;;;;;;;;5027743;28;20034;-59
2022/10/28 10:20:05;;;;;;;16.25;6.05;;;;;;;;;;5027538;28;20029;-59
2022/10/28 10:22:32;;;;;;;18.70;6.80;;;;;;;;;;5031448;28;20041;-59
2022/10/28 10:24:58;;;;;;;18.00;5.38;;;;;;;;;;5033641;28;20017;-59
2022/10/28 10:27:24;;;;;;;19.35;6.03;;;;;;;;;;5032498;28;20539;-59
2022/10/28 10:29:51;;;;;;;14.68;6.78;;;;;;;;;;5015805;28;20025;-58
2022/10/28 10:32:24;;;;;;;19.63;5.60;;;;;;;;;;5031267;28;20071;-59
2022/10/28 10:35:01;;;;;;;17.98;7.32;;;;;;;;;;5032161;28;20037;-59
2022/10/28 10:37:27;;;;;;;11.35;5.57;;;;;;;;;;5031611;28;20045;-59
2022/10/28 10:40:04;;;;;;;14.32;6.72;;;;;;;;;;5033137;28;20439;-59
2022/10/28 10:42:29;;;;;;;19.83;5.75;;;;;;;;;;5031564;28;20037;-59
2022/10/28 10:45:08;;;;;;;11.82;5.25;;;;;;;;;;5032543;28;20385;-59
2022/10/28 10:47:33;;;;;;;15.25;6.47;;;;;;;;;;5028437;28;20045;-59
2022/10/28 10:50:17;;;;;;;15.97;5.20;;;;;;;;;;5022139;28;20022;-59
2022/10/28 10:52:47;;;;;;;11.73;6.47;;;;;;;;;;5030672;28;20073;-59
2022/10/28 10:55:17;;;;;;;21.17;5.72;;;;;;;;;;5033227;28;20509;-59
2022/10/28 10:57:44;;;;;;;25.95;5.68;;;;;;;;;;5031019;28;20125;-59
2022/10/28 11:00:14;;;;;;;16.25;5.93;;;;;;;;;;5032529;28;20025;-59
2022/10/28 11:02:39;;;;;;;23.33;6.57;;;;;;;;;;5030675;28;20034;-59
2022/10/28 11:05:09;;;;;;;16.08;5.70;;;;;;;;;;5032723;28;20027;-59
2022/10/28 11:07:35;;;;;;;17.38;7.90;;;;;;;;;;5030799;28;20038;-59
2022/10/28 11:10:00;;;;;;;15.30;4.60;;;;;;;;;;5032838;28;20025;-59
2022/10/28 11:12:30;;;;;;;30.13;5.70;;;;;;;;;;5031039;28;20523;-59
2022/10/28 11:15:00;;;;;;;13.55;6.50;;;;;;;;;;5032679;28;20551;-59
2022/10/28 11:17:26;;;;;;;15.82;5.55;;;;;;;;;;5030977;28;20038;-59
2022/10/28 11:19:53;;;;;;;13.32;4.18;;;;;;;;;;5032448;28;20036;-59
2022/10/28 11:22:27;;;;;;;22.48;5.28;;;;;;;;;;5030050;28;20496;-59
2022/10/28 11:25:11;;;;;;;17.67;5.32;;;;;;;;;;5032687;28;20147;-59
2022/10/28 11:27:55;;;;;;;19.85;4.88;;;;;;;;;;5030166;28;20542;-59
2022/10/28 11:30:25;;;;;;;19.88;6.05;;;;;;;;;;5032334;28;20025;-59
2022/10/28 11:33:08;;;;;;;19.20;7.85;;;;;;;;;;5029622;28;20033;-59
2022/10/28 11:35:42;;;;;;;18.27;6.10;;;;;;;;;;5032148;28;20121;-59
2022/10/28 11:38:07;;;;;;;18.95;5.68;;;;;;;;;;5030829;28;20037;-59
2022/10/28 11:40:38;;;;;;;17.10;4.82;;;;;;;;;;5030279;28;20033;-59
2022/10/28 11:43:06;;;;;;;27.65;5.47;;;;;;;;;;5028802;28;20665;-59
2022/10/28 11:45:31;;;;;;;17.20;4.20;;;;;;;;;;5030933;28;20033;-59
2022/10/28 11:48:05;;;;;;;15.53;5.47;;;;;;;;;;5030102;28;20030;-59
2022/10/28 11:50:34;;;;;;;15.95;4.95;;;;;;;;;;5030823;28;20029;-59
2022/10/28 11:52:59;;;;;;;11.10;5.80;;;;;;;;;;5029391;28;20052;-58
2022/10/28 11:55:36;;;;;;;10.70;4.90;;;;;;;;;;5032190;28;20022;-59
2022/10/28 11:58:08;;;;;;;20.08;8.25;;;;;;;;;;5030770;28;20445;-59
2022/10/28 12:00:33;;;;;;;13.20;4.95;;;;;;;;;;5031418;28;20527;-59
2022/10/28 12:03:17;;;;;;;15.35;3.90;;;;;;;;;;5028308;28;20634;-59
2022/10/28 12:05:45;;;;;;;18.60;6.70;;;;;;;;;;5030089;28;20022;-59
2022/10/28 12:08:10;;;;;;;;;;;;;;;;;;5030542;28;20038;-59
2022/10/28 12:10:35;;;;;;;13.10;5.07;;;;;;;;;;5030995;28;19915;-59
2022/10/28 12:13:25;;;;;;;13.33;5.27;;;;;;;;;;5030399;28;20084;-59
2022/10/28 12:15:59;;;;;;;27.52;6.47;;;;;;;;;;5031698;28;20416;-59
2022/10/28 12:18:45;;;;;;;10.32;4.63;;;;;;;;;;5030214;28;20116;-59
2022/10/28 12:21:13;;;;;;;14.30;5.18;;;;;;;;;;5029981;28;20049;-59
2022/10/28 12:23:40;;;;;;;18.85;6.63;;;;;;;;;;5029528;28;20128;-59
2022/10/28 12:26:07;;;;;;;16.25;5.28;;;;;;;;;;5031561;28;20021;-59
2022/10/28 12:28:41;;;;;;;17.27;6.05;;;;;;;;;;5029176;28;20064;-59
2022/10/28 12:31:08;;;;;;;13.50;4.85;;;;;;;;;;5031103;28;20048;-59
2022/10/28 12:33:43;;;;;;;21.30;6.65;;;;;;;;;;5029047;28;20041;-59
2022/10/28 12:36:08;;;;;;;15.07;4.78;;;;;;;;;;5030063;28;20049;-59
2022/10/28 12:38:46;;;;;;;12.10;4.32;;;;;;;;;;5029760;28;20080;-59
2022/10/28 12:41:12;;;;;;;;;;;;;;;;;;5031852;28;20025;-59
2022/10/28 12:43:38;;;;;;;30.52;6.30;;;;;;;;;;5028532;28;19909;-59
2022/10/28 12:46:04;;;;;;;19.75;5.93;;;;;;;;;;5031569;28;20025;-59
2022/10/28 12:48:35;;;;;;;17.48;5.75;;;;;;;;;;5029149;28;20029;-59
2022/10/28 12:51:13;;;;;;;17.58;5.05;;;;;;;;;;5030906;28;20049;-59
2022/10/28 12:53:41;;;;;;;13.10;5.15;;;;;;;;;;5029523;28;20029;-59
2022/10/28 12:56:10;;;;;;;14.20;4.97;;;;;;;;;;5031225;28;20029;-59
2022/10/28 12:58:59;;;;;;;12.98;5.32;;;;;;;;;;5028552;28;20045;-59
2022/10/28 13:01:27;;;;;;;17.77;6.00;;;;;;;;;;5009818;28;20032;-58
2022/10/28 13:03:53;;;;;;;22.33;5.20;;;;;;;;;;5029801;28;20484;-59
2022/10/28 13:06:21;;;;;;;15.68;6.85;;;;;;;;;;5028944;28;20035;-58
2022/10/28 13:08:58;;;;;;;25.88;8.32;;;;;;;;;;5030848;28;20380;-58
2022/10/28 13:11:33;;;;;;;15.27;5.93;;;;;;;;;;5028213;28;20033;-58
2022/10/28 13:14:11;;;;;;;14.75;4.47;;;;;;;;;;5030797;28;20010;-59
2022/10/28 13:16:45;;;;;;;24.63;5.90;;;;;;;;;;5029019;28;20044;-59
2022/10/28 13:19:29;;;;;;;14.05;5.00;;;;;;;;;;5030917;28;20416;-59
2022/10/28 13:22:16;;;;;;;19.63;5.65;;;;;;;;;;5029051;28;20036;-59
2022/10/28 13:24:41;;;;;;;22.48;7.68;;;;;;;;;;5029919;28;20377;-59
2022/10/28 13:27:10;;;;;;;15.75;5.65;;;;;;;;;;5028557;28;20397;-59
2022/10/28 13:29:36;;;;;;;15.90;5.85;;;;;;;;;;5029709;28;20018;-59
2022/10/28 13:32:02;;;;;;;21.00;5.68;;;;;;;;;;5028221;28;20060;-59
2022/10/28 13:34:35;;;;;;;18.63;4.53;;;;;;;;;;5030072;28;20037;-59
2022/10/28 13:37:04;;;;;;;21.85;6.50;;;;;;;;;;5018479;28;20041;-58
2022/10/28 13:39:32;;;;;;;19.40;6.85;;;;;;;;;;5030421;28;20029;-58
2022/10/28 13:42:13;;;;;;;15.23;5.55;;;;;;;;;;5028973;28;20042;-58
2022/10/28 13:44:49;;;;;;;16.77;5.50;;;;;;;;;;5027895;28;20028;-59
2022/10/28 13:47:14;;;;;;;16.92;6.13;;;;;;;;;;5021432;28;20396;-58
2022/10/28 13:49:59;;;;;;;13.93;4.43;;;;;;;;;;5029353;28;20101;-58
2022/10/28 13:52:24;;;;;;;22.02;6.63;;;;;;;;;;5028045;28;20071;-57
2022/10/28 13:54:54;;;;;;;15.75;6.45;;;;;;;;;;5030381;28;20018;-58
2022/10/28 13:57:36;;;;;;;19.98;5.55;;;;;;;;;;5032082;28;20038;-58
2022/10/28 14:00:02;;;;;;;13.98;7.00;;;;;;;;;;5034018;28;20025;-58
2022/10/28 14:02:31;;;;;;;17.67;5.40;;;;;;;;;;5030652;28;20044;-58
2022/10/28 14:04:57;;;;;;;25.77;6.13;;;;;;;;;;5034269;28;20022;-58
2022/10/28 14:07:26;;;;;;;23.15;7.88;;;;;;;;;;5032545;28;20132;-59
2022/10/28 14:09:53;;;;;;;19.67;4.40;;;;;;;;;;5034082;28;20362;-58
2022/10/28 14:12:22;;;;;;;16.70;5.72;;;;;;;;;;5032305;28;20069;-58
2022/10/28 14:14:49;;;;;;;23.38;6.53;;;;;;;;;;5031948;28;20021;-59
2022/10/28 14:17:19;;;;;;;18.30;6.22;;;;;;;;;;5032198;28;20377;-58
2022/10/28 14:19:49;;;;;;;17.23;6.07;;;;;;;;;;5033270;28;20163;-58
2022/10/28 14:22:25;;;;;;;20.38;4.60;;;;;;;;;;5031619;28;20044;-58
2022/10/28 14:24:51;;;;;;;13.00;5.63;;;;;;;;;;5032584;28;20492;-58
2022/10/28 14:27:27;;;;;;;16.13;7.18;;;;;;;;;;5031801;28;20057;-59
2022/10/28 14:29:55;;;;;;;28.50;7.72;;;;;;;;;;5031372;28;20014;-58
2022/10/28 14:32:29;;;;;;;18.33;6.50;;;;;;;;;;5031727;28;20075;-59
2022/10/28 14:34:57;;;;;;;14.77;6.25;;;;;;;;;;5036563;28;20068;-58
2022/10/28 14:37:33;;;;;;;19.08;5.03;;;;;;;;;;5023613;28;20153;-59